Terminal Aerodrome Forecast
Issued by NWS

Home | Current Version | Previous Version | Text Only | Print | Product List | Glossary On
Versions: 1 2 3 4 5 6 7 8 9 10 11 12 13 14 15 16 17 18 19 20 21 22 23 24 25 26
000
FTUS43 KDVN 260900 AAB
TAFCID
TAF AMD
KCID 260929Z 2609/2706 17005KT P6SM OVC020
     FM261200 19005KT P6SM OVC018
      TEMPO 2613/2615 2SM -SN BR SCT008 OVC012
     FM261600 24012KT P6SM BKN025
     FM262000 30010KT P6SM OVC020=

USA.gov is the U.S. government's official web portal to all federal, state and local government web resources and services.